sensor_id;sensor_type;location;lat;lon;timestamp;P1;durP1;ratioP1;P2;durP2;ratioP2
63817;SDS011;53093;55.092;73.476;2022-07-18T00:02:19;13.38;;;12.18;;
63817;SDS011;53093;55.092;73.476;2022-07-18T00:04:46;13.50;;;12.20;;
63817;SDS011;53093;55.092;73.476;2022-07-18T00:07:13;13.23;;;11.93;;
63817;SDS011;53093;55.092;73.476;2022-07-18T00:09:50;13.93;;;12.63;;
63817;SDS011;53093;55.092;73.476;2022-07-18T00:12:17;12.77;;;11.63;;
63817;SDS011;53093;55.092;73.476;2022-07-18T00:14:44;13.10;;;12.00;;
63817;SDS011;53093;55.092;73.476;2022-07-18T00:17:14;13.32;;;11.77;;
63817;SDS011;53093;55.092;73.476;2022-07-18T00:19:41;13.15;;;11.95;;
63817;SDS011;53093;55.092;73.476;2022-07-18T00:22:08;12.52;;;11.38;;
63817;SDS011;53093;55.092;73.476;2022-07-18T00:24:35;13.27;;;11.98;;
63817;SDS011;53093;55.092;73.476;2022-07-18T00:27:04;13.60;;;12.18;;
63817;SDS011;53093;55.092;73.476;2022-07-18T00:29:33;15.30;;;12.25;;
63817;SDS011;53093;55.092;73.476;2022-07-18T00:32:04;13.23;;;12.02;;
63817;SDS011;53093;55.092;73.476;2022-07-18T00:34:32;13.55;;;12.25;;
63817;SDS011;53093;55.092;73.476;2022-07-18T00:37:00;14.43;;;12.30;;
63817;SDS011;53093;55.092;73.476;2022-07-18T00:39:28;13.20;;;12.00;;
63817;SDS011;53093;55.092;73.476;2022-07-18T00:41:54;13.35;;;12.00;;
63817;SDS011;53093;55.092;73.476;2022-07-18T00:44:22;19.85;;;12.13;;
63817;SDS011;53093;55.092;73.476;2022-07-18T00:46:53;12.98;;;11.68;;
63817;SDS011;53093;55.092;73.476;2022-07-18T00:49:21;13.73;;;12.35;;
63817;SDS011;53093;55.092;73.476;2022-07-18T00:51:52;13.70;;;12.30;;
63817;SDS011;53093;55.092;73.476;2022-07-18T00:54:20;13.13;;;11.77;;
63817;SDS011;53093;55.092;73.476;2022-07-18T00:56:47;14.27;;;12.77;;
63817;SDS011;53093;55.092;73.476;2022-07-18T00:59:15;13.75;;;12.45;;
63817;SDS011;53093;55.092;73.476;2022-07-18T01:01:48;14.15;;;12.60;;
63817;SDS011;53093;55.092;73.476;2022-07-18T01:04:22;14.15;;;12.80;;
63817;SDS011;53093;55.092;73.476;2022-07-18T01:06:49;13.32;;;12.07;;
63817;SDS011;53093;55.092;73.476;2022-07-18T01:09:17;13.80;;;12.60;;
63817;SDS011;53093;55.092;73.476;2022-07-18T01:11:45;13.52;;;12.35;;
63817;SDS011;53093;55.092;73.476;2022-07-18T01:14:12;13.75;;;12.50;;
63817;SDS011;53093;55.092;73.476;2022-07-18T01:16:39;13.55;;;12.15;;
63817;SDS011;53093;55.092;73.476;2022-07-18T01:19:06;14.10;;;12.63;;
63817;SDS011;53093;55.092;73.476;2022-07-18T01:21:33;14.15;;;12.85;;
63817;SDS011;53093;55.092;73.476;2022-07-18T01:24:01;13.50;;;12.30;;
63817;SDS011;53093;55.092;73.476;2022-07-18T01:26:28;13.43;;;12.13;;
63817;SDS011;53093;55.092;73.476;2022-07-18T01:28:55;12.65;;;11.55;;
63817;SDS011;53093;55.092;73.476;2022-07-18T01:31:22;13.02;;;11.68;;
63817;SDS011;53093;55.092;73.476;2022-07-18T01:33:49;13.18;;;11.90;;
63817;SDS011;53093;55.092;73.476;2022-07-18T01:36:16;12.85;;;11.55;;
63817;SDS011;53093;55.092;73.476;2022-07-18T01:38:43;14.07;;;12.07;;
63817;SDS011;53093;55.092;73.476;2022-07-18T01:41:10;13.02;;;11.93;;
63817;SDS011;53093;55.092;73.476;2022-07-18T01:43:40;18.40;;;11.68;;
63817;SDS011;53093;55.092;73.476;2022-07-18T01:46:11;12.25;;;11.15;;
63817;SDS011;53093;55.092;73.476;2022-07-18T01:48:39;12.10;;;11.02;;
63817;SDS011;53093;55.092;73.476;2022-07-18T01:51:07;13.15;;;11.35;;
63817;SDS011;53093;55.092;73.476;2022-07-18T01:53:41;13.38;;;11.40;;
63817;SDS011;53093;55.092;73.476;2022-07-18T01:56:11;13.98;;;11.38;;
63817;SDS011;53093;55.092;73.476;2022-07-18T01:58:38;12.20;;;11.18;;
63817;SDS011;53093;55.092;73.476;2022-07-18T02:01:05;12.10;;;10.38;;
63817;SDS011;53093;55.092;73.476;2022-07-18T02:03:32;17.27;;;11.90;;
63817;SDS011;53093;55.092;73.476;2022-07-18T02:05:59;12.60;;;10.68;;
63817;SDS011;53093;55.092;73.476;2022-07-18T02:08:26;11.70;;;10.27;;
63817;SDS011;53093;55.092;73.476;2022-07-18T02:10:53;10.88;;;9.77;;
63817;SDS011;53093;55.092;73.476;2022-07-18T02:13:21;11.30;;;10.05;;
63817;SDS011;53093;55.092;73.476;2022-07-18T02:15:48;34.92;;;10.07;;
63817;SDS011;53093;55.092;73.476;2022-07-18T02:18:15;11.40;;;9.50;;
63817;SDS011;53093;55.092;73.476;2022-07-18T02:20:49;9.63;;;8.77;;
63817;SDS011;53093;55.092;73.476;2022-07-18T02:23:16;9.63;;;8.65;;
63817;SDS011;53093;55.092;73.476;2022-07-18T02:25:43;9.30;;;8.48;;
63817;SDS011;53093;55.092;73.476;2022-07-18T02:28:10;9.65;;;8.48;;
63817;SDS011;53093;55.092;73.476;2022-07-18T02:30:37;9.23;;;8.43;;
63817;SDS011;53093;55.092;73.476;2022-07-18T02:33:04;8.38;;;7.57;;
63817;SDS011;53093;55.092;73.476;2022-07-18T02:35:32;11.88;;;7.65;;
63817;SDS011;53093;55.092;73.476;2022-07-18T02:37:59;8.35;;;7.38;;
63817;SDS011;53093;55.092;73.476;2022-07-18T02:40:26;31.08;;;8.25;;
63817;SDS011;53093;55.092;73.476;2022-07-18T02:42:53;7.38;;;6.78;;
63817;SDS011;53093;55.092;73.476;2022-07-18T02:45:20;8.20;;;7.00;;
63817;SDS011;53093;55.092;73.476;2022-07-18T02:47:47;9.15;;;7.13;;
63817;SDS011;53093;55.092;73.476;2022-07-18T02:50:14;9.00;;;6.88;;
63817;SDS011;53093;55.092;73.476;2022-07-18T02:52:42;6.30;;;5.70;;
63817;SDS011;53093;55.092;73.476;2022-07-18T02:55:09;7.60;;;6.18;;
63817;SDS011;53093;55.092;73.476;2022-07-18T02:57:37;6.70;;;6.00;;
63817;SDS011;53093;55.092;73.476;2022-07-18T03:00:04;8.35;;;5.93;;
63817;SDS011;53093;55.092;73.476;2022-07-18T03:02:32;6.53;;;5.93;;
63817;SDS011;53093;55.092;73.476;2022-07-18T03:04:59;6.47;;;5.97;;
63817;SDS011;53093;55.092;73.476;2022-07-18T03:07:37;7.57;;;5.80;;
63817;SDS011;53093;55.092;73.476;2022-07-18T03:10:04;10.70;;;6.25;;
63817;SDS011;53093;55.092;73.476;2022-07-18T03:12:31;6.60;;;5.95;;
63817;SDS011;53093;55.092;73.476;2022-07-18T03:14:58;6.95;;;5.50;;
63817;SDS011;53093;55.092;73.476;2022-07-18T03:17:26;6.53;;;6.03;;
63817;SDS011;53093;55.092;73.476;2022-07-18T03:19:53;6.40;;;5.72;;
63817;SDS011;53093;55.092;73.476;2022-07-18T03:22:20;6.85;;;6.20;;
63817;SDS011;53093;55.092;73.476;2022-07-18T03:24:47;7.55;;;5.63;;
63817;SDS011;53093;55.092;73.476;2022-07-18T03:27:14;7.32;;;6.00;;
63817;SDS011;53093;55.092;73.476;2022-07-18T03:29:41;6.65;;;5.45;;
63817;SDS011;53093;55.092;73.476;2022-07-18T03:32:07;5.65;;;5.05;;
63817;SDS011;53093;55.092;73.476;2022-07-18T03:34:34;7.13;;;5.80;;
63817;SDS011;53093;55.092;73.476;2022-07-18T03:37:01;6.28;;;5.68;;
63817;SDS011;53093;55.092;73.476;2022-07-18T03:39:28;5.55;;;5.05;;
63817;SDS011;53093;55.092;73.476;2022-07-18T03:42:02;6.40;;;5.80;;
63817;SDS011;53093;55.092;73.476;2022-07-18T03:44:29;7.25;;;5.10;;
63817;SDS011;53093;55.092;73.476;2022-07-18T03:46:56;4.95;;;4.65;;
63817;SDS011;53093;55.092;73.476;2022-07-18T03:49:23;7.10;;;5.30;;
63817;SDS011;53093;55.092;73.476;2022-07-18T03:51:50;5.10;;;4.60;;
63817;SDS011;53093;55.092;73.476;2022-07-18T03:54:17;6.47;;;4.78;;
63817;SDS011;53093;55.092;73.476;2022-07-18T03:56:44;5.03;;;4.60;;
63817;SDS011;53093;55.092;73.476;2022-07-18T03:59:11;19.77;;;5.35;;
63817;SDS011;53093;55.092;73.476;2022-07-18T04:01:38;4.78;;;4.40;;
63817;SDS011;53093;55.092;73.476;2022-07-18T04:04:05;6.80;;;4.50;;
63817;SDS011;53093;55.092;73.476;2022-07-18T04:06:32;5.38;;;4.88;;
63817;SDS011;53093;55.092;73.476;2022-07-18T04:09:06;5.63;;;4.30;;
63817;SDS011;53093;55.092;73.476;2022-07-18T04:11:37;12.23;;;4.57;;
63817;SDS011;53093;55.092;73.476;2022-07-18T04:14:04;4.50;;;3.38;;
63817;SDS011;53093;55.092;73.476;2022-07-18T04:16:31;9.40;;;3.38;;
63817;SDS011;53093;55.092;73.476;2022-07-18T04:18:58;3.97;;;3.50;;
63817;SDS011;53093;55.092;73.476;2022-07-18T04:21:25;3.70;;;3.33;;
63817;SDS011;53093;55.092;73.476;2022-07-18T04:23:52;3.78;;;3.17;;
63817;SDS011;53093;55.092;73.476;2022-07-18T04:26:19;5.30;;;3.08;;
63817;SDS011;53093;55.092;73.476;2022-07-18T04:28:46;3.38;;;3.05;;
63817;SDS011;53093;55.092;73.476;2022-07-18T04:31:13;4.00;;;3.40;;
63817;SDS011;53093;55.092;73.476;2022-07-18T04:33:40;3.35;;;3.10;;
63817;SDS011;53093;55.092;73.476;2022-07-18T04:36:07;7.45;;;3.47;;
63817;SDS011;53093;55.092;73.476;2022-07-18T04:38:34;7.78;;;3.35;;
63817;SDS011;53093;55.092;73.476;2022-07-18T04:41:04;4.10;;;3.28;;
63817;SDS011;53093;55.092;73.476;2022-07-18T04:43:33;9.95;;;3.28;;
63817;SDS011;53093;55.092;73.476;2022-07-18T04:46:05;3.17;;;2.80;;
63817;SDS011;53093;55.092;73.476;2022-07-18T04:48:32;5.35;;;3.22;;
63817;SDS011;53093;55.092;73.476;2022-07-18T04:50:59;3.40;;;3.20;;
63817;SDS011;53093;55.092;73.476;2022-07-18T04:53:26;3.58;;;3.30;;
63817;SDS011;53093;55.092;73.476;2022-07-18T04:55:53;3.58;;;3.28;;
63817;SDS011;53093;55.092;73.476;2022-07-18T04:58:20;11.85;;;3.50;;
63817;SDS011;53093;55.092;73.476;2022-07-18T05:00:47;4.10;;;3.50;;
63817;SDS011;53093;55.092;73.476;2022-07-18T05:03:14;5.45;;;3.30;;
63817;SDS011;53093;55.092;73.476;2022-07-18T05:05:41;14.35;;;3.60;;
63817;SDS011;53093;55.092;73.476;2022-07-18T05:08:13;3.60;;;3.20;;
63817;SDS011;53093;55.092;73.476;2022-07-18T05:10:40;22.27;;;4.50;;
63817;SDS011;53093;55.092;73.476;2022-07-18T05:13:07;4.80;;;3.40;;
63817;SDS011;53093;55.092;73.476;2022-07-18T05:15:34;3.42;;;3.13;;
63817;SDS011;53093;55.092;73.476;2022-07-18T05:18:01;3.85;;;3.33;;
63817;SDS011;53093;55.092;73.476;2022-07-18T05:20:29;5.10;;;3.58;;
63817;SDS011;53093;55.092;73.476;2022-07-18T05:23:06;4.88;;;3.30;;
63817;SDS011;53093;55.092;73.476;2022-07-18T05:25:33;4.40;;;3.00;;
63817;SDS011;53093;55.092;73.476;2022-07-18T05:28:00;3.80;;;3.50;;
63817;SDS011;53093;55.092;73.476;2022-07-18T05:30:34;6.97;;;3.60;;
63817;SDS011;53093;55.092;73.476;2022-07-18T05:33:01;4.10;;;3.70;;
63817;SDS011;53093;55.092;73.476;2022-07-18T05:35:29;3.50;;;3.17;;
63817;SDS011;53093;55.092;73.476;2022-07-18T05:38:00;3.30;;;3.00;;
63817;SDS011;53093;55.092;73.476;2022-07-18T05:40:32;8.30;;;3.22;;
63817;SDS011;53093;55.092;73.476;2022-07-18T05:42:59;3.22;;;3.03;;
63817;SDS011;53093;55.092;73.476;2022-07-18T05:45:26;3.65;;;2.70;;
63817;SDS011;53093;55.092;73.476;2022-07-18T05:47:53;3.15;;;2.85;;
63817;SDS011;53093;55.092;73.476;2022-07-18T05:50:21;2.95;;;2.70;;
63817;SDS011;53093;55.092;73.476;2022-07-18T05:52:48;3.63;;;2.50;;
63817;SDS011;53093;55.092;73.476;2022-07-18T05:55:15;5.57;;;3.08;;
63817;SDS011;53093;55.092;73.476;2022-07-18T05:57:42;3.88;;;2.78;;
63817;SDS011;53093;55.092;73.476;2022-07-18T06:00:09;3.95;;;2.70;;
63817;SDS011;53093;55.092;73.476;2022-07-18T06:02:37;10.65;;;2.88;;
63817;SDS011;53093;55.092;73.476;2022-07-18T06:05:04;4.05;;;2.30;;
63817;SDS011;53093;55.092;73.476;2022-07-18T06:07:32;2.90;;;2.70;;
63817;SDS011;53093;55.092;73.476;2022-07-18T06:09:58;9.13;;;2.80;;
63817;SDS011;53093;55.092;73.476;2022-07-18T06:12:27;2.38;;;2.22;;
63817;SDS011;53093;55.092;73.476;2022-07-18T06:14:55;2.50;;;2.30;;
63817;SDS011;53093;55.092;73.476;2022-07-18T06:17:22;3.15;;;2.55;;
63817;SDS011;53093;55.092;73.476;2022-07-18T06:19:49;2.80;;;2.60;;
63817;SDS011;53093;55.092;73.476;2022-07-18T06:22:17;5.78;;;2.80;;
63817;SDS011;53093;55.092;73.476;2022-07-18T06:24:44;4.55;;;2.53;;
63817;SDS011;53093;55.092;73.476;2022-07-18T06:27:11;5.65;;;2.70;;
63817;SDS011;53093;55.092;73.476;2022-07-18T06:29:38;3.33;;;2.58;;
63817;SDS011;53093;55.092;73.476;2022-07-18T06:32:05;3.92;;;2.60;;
63817;SDS011;53093;55.092;73.476;2022-07-18T06:34:32;2.88;;;2.50;;
63817;SDS011;53093;55.092;73.476;2022-07-18T06:36:59;3.38;;;2.65;;
63817;SDS011;53093;55.092;73.476;2022-07-18T06:39:26;3.92;;;2.40;;
63817;SDS011;53093;55.092;73.476;2022-07-18T06:41:53;6.07;;;2.60;;
63817;SDS011;53093;55.092;73.476;2022-07-18T06:44:20;9.93;;;2.60;;
63817;SDS011;53093;55.092;73.476;2022-07-18T06:46:47;5.20;;;2.95;;
63817;SDS011;53093;55.092;73.476;2022-07-18T06:49:14;4.07;;;2.40;;
63817;SDS011;53093;55.092;73.476;2022-07-18T06:51:53;4.82;;;2.60;;
63817;SDS011;53093;55.092;73.476;2022-07-18T06:54:20;4.18;;;2.40;;
63817;SDS011;53093;55.092;73.476;2022-07-18T06:56:47;2.83;;;2.20;;
63817;SDS011;53093;55.092;73.476;2022-07-18T06:59:14;6.25;;;2.20;;
63817;SDS011;53093;55.092;73.476;2022-07-18T07:01:41;4.05;;;2.70;;
63817;SDS011;53093;55.092;73.476;2022-07-18T07:04:08;2.80;;;2.60;;
63817;SDS011;53093;55.092;73.476;2022-07-18T07:06:35;4.68;;;2.60;;
63817;SDS011;53093;55.092;73.476;2022-07-18T07:09:05;3.05;;;2.40;;
63817;SDS011;53093;55.092;73.476;2022-07-18T07:11:32;4.03;;;2.83;;
63817;SDS011;53093;55.092;73.476;2022-07-18T07:13:59;7.03;;;3.10;;
63817;SDS011;53093;55.092;73.476;2022-07-18T07:16:31;3.65;;;2.65;;
63817;SDS011;53093;55.092;73.476;2022-07-18T07:19:02;3.15;;;2.65;;
63817;SDS011;53093;55.092;73.476;2022-07-18T07:21:33;4.55;;;2.97;;
63817;SDS011;53093;55.092;73.476;2022-07-18T07:23:59;6.88;;;3.28;;
63817;SDS011;53093;55.092;73.476;2022-07-18T07:26:26;3.10;;;2.70;;
63817;SDS011;53093;55.092;73.476;2022-07-18T07:28:53;27.15;;;4.25;;
63817;SDS011;53093;55.092;73.476;2022-07-18T07:31:20;9.85;;;3.00;;
63817;SDS011;53093;55.092;73.476;2022-07-18T07:33:47;6.70;;;2.88;;
63817;SDS011;53093;55.092;73.476;2022-07-18T07:36:14;11.25;;;4.15;;
63817;SDS011;53093;55.092;73.476;2022-07-18T07:38:41;5.13;;;4.53;;
63817;SDS011;53093;55.092;73.476;2022-07-18T07:41:08;3.30;;;3.00;;
63817;SDS011;53093;55.092;73.476;2022-07-18T07:43:40;3.42;;;2.90;;
63817;SDS011;53093;55.092;73.476;2022-07-18T07:46:07;3.85;;;3.22;;
63817;SDS011;53093;55.092;73.476;2022-07-18T07:48:34;5.57;;;3.30;;
63817;SDS011;53093;55.092;73.476;2022-07-18T07:51:01;6.82;;;3.35;;
63817;SDS011;53093;55.092;73.476;2022-07-18T07:53:30;3.65;;;3.00;;
63817;SDS011;53093;55.092;73.476;2022-07-18T07:55:57;4.00;;;2.70;;
63817;SDS011;53093;55.092;73.476;2022-07-18T07:58:24;3.67;;;3.10;;
63817;SDS011;53093;55.092;73.476;2022-07-18T08:00:55;15.90;;;3.17;;
63817;SDS011;53093;55.092;73.476;2022-07-18T08:03:21;3.80;;;2.50;;
63817;SDS011;53093;55.092;73.476;2022-07-18T08:05:49;5.15;;;2.58;;
63817;SDS011;53093;55.092;73.476;2022-07-18T08:08:20;5.05;;;2.95;;
63817;SDS011;53093;55.092;73.476;2022-07-18T08:10:48;3.10;;;2.80;;
63817;SDS011;53093;55.092;73.476;2022-07-18T08:13:15;3.25;;;2.90;;
63817;SDS011;53093;55.092;73.476;2022-07-18T08:15:42;3.53;;;2.30;;
63817;SDS011;53093;55.092;73.476;2022-07-18T08:18:09;3.45;;;2.50;;
63817;SDS011;53093;55.092;73.476;2022-07-18T08:20:36;5.00;;;2.78;;
63817;SDS011;53093;55.092;73.476;2022-07-18T08:23:07;3.20;;;2.90;;
63817;SDS011;53093;55.092;73.476;2022-07-18T08:25:38;3.08;;;2.78;;
63817;SDS011;53093;55.092;73.476;2022-07-18T08:28:06;6.97;;;2.83;;
63817;SDS011;53093;55.092;73.476;2022-07-18T08:30:34;3.00;;;2.80;;
63817;SDS011;53093;55.092;73.476;2022-07-18T08:33:01;6.65;;;2.83;;
63817;SDS011;53093;55.092;73.476;2022-07-18T08:35:28;11.43;;;2.63;;
63817;SDS011;53093;55.092;73.476;2022-07-18T08:37:55;5.35;;;2.50;;
63817;SDS011;53093;55.092;73.476;2022-07-18T08:40:22;5.30;;;2.40;;
63817;SDS011;53093;55.092;73.476;2022-07-18T08:42:50;2.55;;;2.35;;
63817;SDS011;53093;55.092;73.476;2022-07-18T08:45:22;23.90;;;3.85;;
63817;SDS011;53093;55.092;73.476;2022-07-18T08:47:49;2.67;;;2.47;;
63817;SDS011;53093;55.092;73.476;2022-07-18T08:50:16;4.25;;;2.53;;
63817;SDS011;53093;55.092;73.476;2022-07-18T08:52:43;3.22;;;2.30;;
63817;SDS011;53093;55.092;73.476;2022-07-18T08:55:10;3.92;;;2.08;;
63817;SDS011;53093;55.092;73.476;2022-07-18T08:57:38;7.30;;;2.50;;
63817;SDS011;53093;55.092;73.476;2022-07-18T09:00:06;3.45;;;1.95;;
63817;SDS011;53093;55.092;73.476;2022-07-18T09:02:43;3.13;;;2.10;;
63817;SDS011;53093;55.092;73.476;2022-07-18T09:05:20;10.30;;;3.05;;
63817;SDS011;53093;55.092;73.476;2022-07-18T09:07:47;9.00;;;2.67;;
63817;SDS011;53093;55.092;73.476;2022-07-18T09:10:14;4.75;;;2.40;;
63817;SDS011;53093;55.092;73.476;2022-07-18T09:12:59;3.72;;;2.20;;
63817;SDS011;53093;55.092;73.476;2022-07-18T09:15:34;13.07;;;2.30;;
63817;SDS011;53093;55.092;73.476;2022-07-18T09:18:08;4.32;;;2.00;;
63817;SDS011;53093;55.092;73.476;2022-07-18T09:20:34;3.80;;;2.40;;
63817;SDS011;53093;55.092;73.476;2022-07-18T09:23:09;2.38;;;2.10;;
63817;SDS011;53093;55.092;73.476;2022-07-18T09:25:38;4.68;;;2.45;;
63817;SDS011;53093;55.092;73.476;2022-07-18T09:28:08;3.03;;;1.95;;
63817;SDS011;53093;55.092;73.476;2022-07-18T09:30:35;2.42;;;1.98;;
63817;SDS011;53093;55.092;73.476;2022-07-18T09:35:33;2.00;;;1.90;;
63817;SDS011;53093;55.092;73.476;2022-07-18T09:38:37;4.65;;;2.10;;
63817;SDS011;53093;55.092;73.476;2022-07-18T09:41:02;2.13;;;1.77;;
63817;SDS011;53093;55.092;73.476;2022-07-18T09:43:37;6.10;;;2.20;;
63817;SDS011;53093;55.092;73.476;2022-07-18T09:46:05;1.90;;;1.80;;
63817;SDS011;53093;55.092;73.476;2022-07-18T09:48:33;3.05;;;1.80;;
63817;SDS011;53093;55.092;73.476;2022-07-18T09:51:00;2.80;;;2.00;;
63817;SDS011;53093;55.092;73.476;2022-07-18T09:56:02;2.33;;;2.10;;
63817;SDS011;53093;55.092;73.476;2022-07-18T09:58:31;1.92;;;1.65;;
63817;SDS011;53093;55.092;73.476;2022-07-18T10:00:59;2.90;;;2.10;;
63817;SDS011;53093;55.092;73.476;2022-07-18T10:03:27;2.25;;;1.95;;
63817;SDS011;53093;55.092;73.476;2022-07-18T10:06:04;7.20;;;1.90;;
63817;SDS011;53093;55.092;73.476;2022-07-18T10:08:32;3.50;;;1.63;;
63817;SDS011;53093;55.092;73.476;2022-07-18T10:10:59;4.22;;;1.85;;
63817;SDS011;53093;55.092;73.476;2022-07-18T10:13:27;3.55;;;1.70;;
63817;SDS011;53093;55.092;73.476;2022-07-18T10:16:05;5.32;;;3.30;;
63817;SDS011;53093;55.092;73.476;2022-07-18T10:18:33;2.88;;;1.80;;
63817;SDS011;53093;55.092;73.476;2022-07-18T10:23:34;5.80;;;2.05;;
63817;SDS011;53093;55.092;73.476;2022-07-18T10:26:10;5.25;;;1.85;;
63817;SDS011;53093;55.092;73.476;2022-07-18T10:31:30;1.98;;;1.80;;
63817;SDS011;53093;55.092;73.476;2022-07-18T10:36:34;9.43;;;2.30;;
63817;SDS011;53093;55.092;73.476;2022-07-18T10:39:05;4.78;;;2.00;;
63817;SDS011;53093;55.092;73.476;2022-07-18T10:41:34;1.70;;;1.58;;
63817;SDS011;53093;55.092;73.476;2022-07-18T10:44:34;1.98;;;1.80;;
63817;SDS011;53093;55.092;73.476;2022-07-18T10:50:14;2.20;;;2.00;;
63817;SDS011;53093;55.092;73.476;2022-07-18T11:00:11;5.25;;;2.38;;
63817;SDS011;53093;55.092;73.476;2022-07-18T11:02:42;2.33;;;1.77;;
63817;SDS011;53093;55.092;73.476;2022-07-18T11:06:10;4.50;;;2.10;;
63817;SDS011;53093;55.092;73.476;2022-07-18T11:16:11;9.65;;;2.20;;
63817;SDS011;53093;55.092;73.476;2022-07-18T11:23:48;2.05;;;1.75;;
63817;SDS011;53093;55.092;73.476;2022-07-18T11:26:25;2.22;;;1.80;;
63817;SDS011;53093;55.092;73.476;2022-07-18T11:29:02;2.03;;;1.80;;
63817;SDS011;53093;55.092;73.476;2022-07-18T11:31:29;3.75;;;2.03;;
63817;SDS011;53093;55.092;73.476;2022-07-18T11:33:58;10.23;;;2.65;;
63817;SDS011;53093;55.092;73.476;2022-07-18T11:36:29;2.25;;;1.90;;
63817;SDS011;53093;55.092;73.476;2022-07-18T11:39:02;4.85;;;1.92;;
63817;SDS011;53093;55.092;73.476;2022-07-18T11:41:29;8.10;;;2.03;;
63817;SDS011;53093;55.092;73.476;2022-07-18T11:43:57;2.28;;;2.00;;
63817;SDS011;53093;55.092;73.476;2022-07-18T11:46:25;2.35;;;1.80;;
63817;SDS011;53093;55.092;73.476;2022-07-18T11:51:35;3.17;;;2.08;;
63817;SDS011;53093;55.092;73.476;2022-07-18T11:54:02;4.80;;;2.00;;
63817;SDS011;53093;55.092;73.476;2022-07-18T11:56:49;3.63;;;1.92;;
63817;SDS011;53093;55.092;73.476;2022-07-18T11:59:40;1.98;;;1.88;;
63817;SDS011;53093;55.092;73.476;2022-07-18T12:02:07;4.72;;;2.05;;
63817;SDS011;53093;55.092;73.476;2022-07-18T12:04:35;4.03;;;2.00;;
63817;SDS011;53093;55.092;73.476;2022-07-18T12:09:51;43.38;;;4.55;;
63817;SDS011;53093;55.092;73.476;2022-07-18T12:12:27;5.90;;;5.20;;
63817;SDS011;53093;55.092;73.476;2022-07-18T12:14:55;2.00;;;1.90;;
63817;SDS011;53093;55.092;73.476;2022-07-18T12:17:22;4.63;;;2.45;;
63817;SDS011;53093;55.092;73.476;2022-07-18T12:19:49;2.05;;;1.70;;
63817;SDS011;53093;55.092;73.476;2022-07-18T12:22:16;3.08;;;1.55;;
63817;SDS011;53093;55.092;73.476;2022-07-18T12:32:43;8.00;;;2.42;;
63817;SDS011;53093;55.092;73.476;2022-07-18T12:35:12;2.10;;;1.95;;
63817;SDS011;53093;55.092;73.476;2022-07-18T12:37:39;6.28;;;2.10;;
63817;SDS011;53093;55.092;73.476;2022-07-18T12:40:08;7.55;;;2.05;;
63817;SDS011;53093;55.092;73.476;2022-07-18T12:42:46;3.05;;;1.90;;
63817;SDS011;53093;55.092;73.476;2022-07-18T12:45:24;3.45;;;1.80;;
63817;SDS011;53093;55.092;73.476;2022-07-18T12:47:51;2.10;;;1.83;;
63817;SDS011;53093;55.092;73.476;2022-07-18T12:50:18;3.97;;;1.95;;
63817;SDS011;53093;55.092;73.476;2022-07-18T12:52:56;5.88;;;3.45;;
63817;SDS011;53093;55.092;73.476;2022-07-18T12:55:23;2.38;;;1.95;;
63817;SDS011;53093;55.092;73.476;2022-07-18T12:57:50;2.22;;;2.13;;
63817;SDS011;53093;55.092;73.476;2022-07-18T13:00:17;2.17;;;2.00;;
63817;SDS011;53093;55.092;73.476;2022-07-18T13:02:45;2.72;;;2.53;;
63817;SDS011;53093;55.092;73.476;2022-07-18T13:05:13;8.38;;;3.65;;
63817;SDS011;53093;55.092;73.476;2022-07-18T13:07:40;2.58;;;2.35;;
63817;SDS011;53093;55.092;73.476;2022-07-18T13:10:07;2.80;;;2.50;;
63817;SDS011;53093;55.092;73.476;2022-07-18T13:12:34;5.22;;;2.50;;
63817;SDS011;53093;55.092;73.476;2022-07-18T13:15:01;4.00;;;2.20;;
63817;SDS011;53093;55.092;73.476;2022-07-18T13:17:28;4.65;;;2.35;;
63817;SDS011;53093;55.092;73.476;2022-07-18T13:19:55;3.35;;;2.20;;
63817;SDS011;53093;55.092;73.476;2022-07-18T13:22:22;20.38;;;3.08;;
63817;SDS011;53093;55.092;73.476;2022-07-18T13:24:49;11.00;;;2.50;;
63817;SDS011;53093;55.092;73.476;2022-07-18T13:27:16;3.25;;;2.22;;
63817;SDS011;53093;55.092;73.476;2022-07-18T13:29:48;2.67;;;2.08;;
63817;SDS011;53093;55.092;73.476;2022-07-18T13:32:15;2.85;;;2.10;;
63817;SDS011;53093;55.092;73.476;2022-07-18T13:34:42;2.53;;;2.00;;
63817;SDS011;53093;55.092;73.476;2022-07-18T13:37:14;3.22;;;2.10;;
63817;SDS011;53093;55.092;73.476;2022-07-18T13:39:41;2.63;;;2.28;;
63817;SDS011;53093;55.092;73.476;2022-07-18T13:42:08;2.15;;;2.05;;
63817;SDS011;53093;55.092;73.476;2022-07-18T13:44:35;2.88;;;2.13;;
63817;SDS011;53093;55.092;73.476;2022-07-18T13:47:02;2.08;;;1.90;;
63817;SDS011;53093;55.092;73.476;2022-07-18T13:49:29;5.03;;;2.17;;
63817;SDS011;53093;55.092;73.476;2022-07-18T13:51:56;2.17;;;2.00;;
63817;SDS011;53093;55.092;73.476;2022-07-18T13:54:23;2.65;;;2.13;;
63817;SDS011;53093;55.092;73.476;2022-07-18T13:56:50;2.97;;;2.25;;
63817;SDS011;53093;55.092;73.476;2022-07-18T13:59:17;10.73;;;2.55;;
63817;SDS011;53093;55.092;73.476;2022-07-18T14:01:44;3.92;;;2.15;;
63817;SDS011;53093;55.092;73.476;2022-07-18T14:04:11;2.35;;;2.15;;
63817;SDS011;53093;55.092;73.476;2022-07-18T14:06:43;44.17;;;4.88;;
63817;SDS011;53093;55.092;73.476;2022-07-18T14:09:18;4.30;;;2.45;;
63817;SDS011;53093;55.092;73.476;2022-07-18T14:11:45;2.65;;;2.45;;
63817;SDS011;53093;55.092;73.476;2022-07-18T14:14:18;2.60;;;2.40;;
63817;SDS011;53093;55.092;73.476;2022-07-18T14:16:45;3.42;;;2.45;;
63817;SDS011;53093;55.092;73.476;2022-07-18T14:19:15;3.80;;;3.10;;
63817;SDS011;53093;55.092;73.476;2022-07-18T14:21:42;6.63;;;5.95;;
63817;SDS011;53093;55.092;73.476;2022-07-18T14:24:09;3.30;;;3.00;;
63817;SDS011;53093;55.092;73.476;2022-07-18T14:26:36;7.80;;;6.75;;
63817;SDS011;53093;55.092;73.476;2022-07-18T14:29:16;6.93;;;3.70;;
63817;SDS011;53093;55.092;73.476;2022-07-18T14:31:53;7.60;;;3.20;;
63817;SDS011;53093;55.092;73.476;2022-07-18T14:34:20;4.28;;;3.88;;
63817;SDS011;53093;55.092;73.476;2022-07-18T14:36:47;7.28;;;3.75;;
63817;SDS011;53093;55.092;73.476;2022-07-18T14:39:14;7.72;;;3.75;;
63817;SDS011;53093;55.092;73.476;2022-07-18T14:41:53;6.63;;;3.50;;
63817;SDS011;53093;55.092;73.476;2022-07-18T14:44:21;4.82;;;4.20;;
63817;SDS011;53093;55.092;73.476;2022-07-18T14:46:48;5.95;;;5.35;;
63817;SDS011;53093;55.092;73.476;2022-07-18T14:49:15;6.35;;;5.57;;
63817;SDS011;53093;55.092;73.476;2022-07-18T14:51:49;5.82;;;5.20;;
63817;SDS011;53093;55.092;73.476;2022-07-18T14:54:16;10.90;;;5.00;;
63817;SDS011;53093;55.092;73.476;2022-07-18T14:56:43;6.80;;;5.22;;
63817;SDS011;53093;55.092;73.476;2022-07-18T14:59:10;7.35;;;5.30;;
63817;SDS011;53093;55.092;73.476;2022-07-18T15:01:37;6.28;;;4.13;;
63817;SDS011;53093;55.092;73.476;2022-07-18T15:04:04;4.72;;;4.00;;
63817;SDS011;53093;55.092;73.476;2022-07-18T15:06:31;16.40;;;4.63;;
63817;SDS011;53093;55.092;73.476;2022-07-18T15:08:58;31.50;;;4.97;;
63817;SDS011;53093;55.092;73.476;2022-07-18T15:11:25;7.30;;;3.78;;
63817;SDS011;53093;55.092;73.476;2022-07-18T15:13:52;10.70;;;4.68;;
63817;SDS011;53093;55.092;73.476;2022-07-18T15:16:19;11.65;;;3.95;;
63817;SDS011;53093;55.092;73.476;2022-07-18T15:18:46;7.97;;;4.18;;
63817;SDS011;53093;55.092;73.476;2022-07-18T15:21:13;6.68;;;4.25;;
63817;SDS011;53093;55.092;73.476;2022-07-18T15:23:41;7.38;;;4.25;;
63817;SDS011;53093;55.092;73.476;2022-07-18T15:26:13;4.78;;;4.20;;
63817;SDS011;53093;55.092;73.476;2022-07-18T15:28:40;8.27;;;4.68;;